AAL345 KLAX-KMIA
Flight info
| Callsign | AAL345 |
|---|---|
| Flight time | 4h 4m |
| Altitude | 39000 |
| Route | DOTSS2 CNERY BLH ANGRY TCS BGS JUMBO NNEAL LCH LEV Q102 BLVNS Y290 DOWRY FROGZ5 |
| Aircraft | B772/H-SDE2E3FGHIJ5LORVWXY/LB1D1 |
Departure
| Time | 2026-04-26 18:05 |
|---|---|
| Airport | Los Angeles International Airport (KLAX) |
Arrival
| Time | 2026-04-26 22:09 |
|---|---|
| Airport | Miami International Airport (KMIA) |
| Time | Latitude | Longitude | Altitude | Speed | Heading |
|---|---|---|---|---|---|
| 2026-04-26 17:18 | 33.94162 | -118.40759 | 99 ft | 0 kts | 84° |
| 2026-04-26 17:51 | 33.94160 | -118.40781 | 100 ft | 4 kts | 84° |
| 2026-04-26 17:52 | 33.94157 | -118.40814 | 98 ft | 4 kts | 84° |
| 2026-04-26 17:52 | 33.94155 | -118.40846 | 100 ft | 4 kts | 84° |
| 2026-04-26 17:52 | 33.94151 | -118.40849 | 99 ft | 0 kts | 174° |
| 2026-04-26 17:57 | 33.94100 | -118.40841 | 101 ft | 6 kts | 172° |
| 2026-04-26 17:57 | 33.94060 | -118.40834 | 101 ft | 6 kts | 172° |
| 2026-04-26 17:57 | 33.94045 | -118.40831 | 101 ft | 0 kts | 172° |
| 2026-04-26 17:59 | 33.94033 | -118.40829 | 94 ft | 7 kts | 172° |
| 2026-04-26 17:59 | 33.93984 | -118.40821 | 101 ft | 7 kts | 172° |
| 2026-04-26 17:59 | 33.93934 | -118.40810 | 101 ft | 7 kts | 163° |
| 2026-04-26 18:00 | 33.93885 | -118.40778 | 104 ft | 10 kts | 142° |
| 2026-04-26 18:00 | 33.93827 | -118.40705 | 107 ft | 13 kts | 111° |
| 2026-04-26 18:00 | 33.93820 | -118.40576 | 107 ft | 18 kts | 83° |
| 2026-04-26 18:00 | 33.93837 | -118.40406 | 108 ft | 21 kts | 82° |
| 2026-04-26 18:01 | 33.93854 | -118.40231 | 108 ft | 21 kts | 84° |
| 2026-04-26 18:01 | 33.93873 | -118.40057 | 109 ft | 21 kts | 83° |
| 2026-04-26 18:01 | 33.93889 | -118.39880 | 109 ft | 21 kts | 84° |
| 2026-04-26 18:01 | 33.93909 | -118.39697 | 107 ft | 23 kts | 83° |
| 2026-04-26 18:02 | 33.93930 | -118.39502 | 107 ft | 23 kts | 83° |
| 2026-04-26 18:02 | 33.93942 | -118.39372 | 108 ft | 23 kts | 83° |
| 2026-04-26 18:02 | 33.93969 | -118.39115 | 106 ft | 23 kts | 82° |
| 2026-04-26 18:02 | 33.93990 | -118.38921 | 106 ft | 23 kts | 83° |
| 2026-04-26 18:03 | 33.94007 | -118.38727 | 107 ft | 23 kts | 84° |
| 2026-04-26 18:03 | 33.94026 | -118.38533 | 108 ft | 23 kts | 79° |
| 2026-04-26 18:03 | 33.94048 | -118.38348 | 108 ft | 18 kts | 83° |
| 2026-04-26 18:03 | 33.94060 | -118.38225 | 108 ft | 13 kts | 82° |
| 2026-04-26 18:04 | 33.94072 | -118.38113 | 107 ft | 13 kts | 83° |
| 2026-04-26 18:04 | 33.94061 | -118.38018 | 108 ft | 11 kts | 134° |
| 2026-04-26 18:04 | 33.93990 | -118.38019 | 110 ft | 8 kts | 227° |
| 2026-04-26 18:05 | 33.93948 | -118.38387 | 113 ft | 73 kts | 262° |
| 2026-04-26 18:05 | 33.93860 | -118.39279 | 116 ft | 138 kts | 262° |
| 2026-04-26 18:05 | 33.93732 | -118.40505 | 583 ft | 151 kts | 261° |
| 2026-04-26 18:05 | 33.93542 | -118.41787 | 1271 ft | 158 kts | 258° |
| 2026-04-26 18:06 | 33.93374 | -118.43048 | 2120 ft | 150 kts | 264° |
| 2026-04-26 18:06 | 33.93266 | -118.44263 | 2726 ft | 143 kts | 264° |
| 2026-04-26 18:06 | 33.93156 | -118.45500 | 2913 ft | 160 kts | 259° |
| 2026-04-26 18:06 | 33.92499 | -118.46642 | 3059 ft | 187 kts | 212° |
| 2026-04-26 18:07 | 33.91151 | -118.47023 | 3219 ft | 211 kts | 191° |
| 2026-04-26 18:07 | 33.89619 | -118.47272 | 3418 ft | 232 kts | 193° |
| 2026-04-26 18:07 | 33.87942 | -118.47602 | 3640 ft | 255 kts | 193° |
| 2026-04-26 18:07 | 33.86751 | -118.47856 | 4069 ft | 258 kts | 194° |
| 2026-04-26 18:08 | 33.84378 | -118.48394 | 4948 ft | 266 kts | 195° |
| 2026-04-26 18:08 | 33.82558 | -118.48830 | 5674 ft | 267 kts | 195° |
| 2026-04-26 18:08 | 33.80732 | -118.49279 | 6408 ft | 268 kts | 195° |
| 2026-04-26 18:08 | 33.78901 | -118.49740 | 7071 ft | 270 kts | 196° |
| 2026-04-26 18:09 | 33.77046 | -118.50212 | 7673 ft | 274 kts | 196° |
| 2026-04-26 18:09 | 33.75167 | -118.50693 | 8299 ft | 277 kts | 197° |
| 2026-04-26 18:09 | 33.73268 | -118.51174 | 8939 ft | 278 kts | 195° |
| 2026-04-26 18:09 | 33.71322 | -118.51164 | 9336 ft | 296 kts | 169° |
| 2026-04-26 18:10 | 33.69482 | -118.49958 | 9904 ft | 311 kts | 138° |
| 2026-04-26 18:10 | 33.68293 | -118.47761 | 10324 ft | 323 kts | 112° |
| 2026-04-26 18:10 | 33.67547 | -118.45117 | 10475 ft | 344 kts | 108° |
| 2026-04-26 18:10 | 33.66788 | -118.42317 | 10843 ft | 359 kts | 109° |
| 2026-04-26 18:11 | 33.65974 | -118.39453 | 11446 ft | 365 kts | 109° |
| 2026-04-26 18:11 | 33.65374 | -118.36449 | 12115 ft | 374 kts | 96° |
| 2026-04-26 18:11 | 33.65273 | -118.33329 | 12965 ft | 375 kts | 88° |
| 2026-04-26 18:11 | 33.65289 | -118.30165 | 13839 ft | 382 kts | 88° |
| 2026-04-26 18:12 | 33.65306 | -118.26996 | 14603 ft | 387 kts | 88° |
| 2026-04-26 18:12 | 33.65319 | -118.23755 | 15405 ft | 391 kts | 89° |
| 2026-04-26 18:12 | 33.65326 | -118.20476 | 16187 ft | 396 kts | 89° |
| 2026-04-26 18:12 | 33.65326 | -118.17143 | 16951 ft | 401 kts | 89° |
| 2026-04-26 18:13 | 33.65321 | -118.13776 | 17688 ft | 406 kts | 90° |
| 2026-04-26 18:13 | 33.65311 | -118.10360 | 18421 ft | 412 kts | 90° |
| 2026-04-26 18:13 | 33.65296 | -118.06210 | 19184 ft | 418 kts | 90° |
| 2026-04-26 18:13 | 33.65276 | -118.01528 | 20127 ft | 424 kts | 91° |
| 2026-04-26 18:14 | 33.65228 | -117.91909 | 21882 ft | 438 kts | 91° |
| 2026-04-26 18:14 | 33.65186 | -117.84512 | 23206 ft | 448 kts | 91° |
| 2026-04-26 18:14 | 33.65139 | -117.76954 | 24363 ft | 457 kts | 92° |
| 2026-04-26 18:14 | 33.65086 | -117.69227 | 25391 ft | 468 kts | 92° |
| 2026-04-26 18:15 | 33.65027 | -117.61336 | 26411 ft | 477 kts | 92° |
| 2026-04-26 18:15 | 33.64962 | -117.53295 | 27399 ft | 486 kts | 92° |
| 2026-04-26 18:15 | 33.64893 | -117.45207 | 28272 ft | 496 kts | 93° |
| 2026-04-26 18:15 | 33.64812 | -117.36833 | 29042 ft | 506 kts | 92° |
| 2026-04-26 18:16 | 33.64726 | -117.28307 | 29880 ft | 513 kts | 93° |
| 2026-04-26 18:16 | 33.64535 | -117.10942 | 31238 ft | 526 kts | 94° |
| 2026-04-26 18:16 | 33.64428 | -117.02113 | 31867 ft | 532 kts | 94° |
| 2026-04-26 18:17 | 33.64316 | -116.93479 | 32328 ft | 539 kts | 95° |
| 2026-04-26 18:17 | 33.64194 | -116.84444 | 32950 ft | 542 kts | 95° |
| 2026-04-26 18:17 | 33.64065 | -116.75340 | 33500 ft | 547 kts | 95° |
| 2026-04-26 18:17 | 33.63928 | -116.66192 | 33933 ft | 553 kts | 95° |
| 2026-04-26 18:18 | 33.63783 | -116.57029 | 34406 ft | 556 kts | 95° |
| 2026-04-26 18:18 | 33.63631 | -116.47730 | 34894 ft | 558 kts | 95° |
| 2026-04-26 18:18 | 33.63472 | -116.38400 | 35370 ft | 559 kts | 96° |
| 2026-04-26 18:18 | 33.63304 | -116.29038 | 35761 ft | 562 kts | 96° |
| 2026-04-26 18:19 | 33.63125 | -116.19655 | 36151 ft | 564 kts | 96° |
| 2026-04-26 18:19 | 33.62941 | -116.10220 | 36541 ft | 566 kts | 96° |
| 2026-04-26 18:19 | 33.62752 | -116.00780 | 37053 ft | 565 kts | 96° |
| 2026-04-26 18:19 | 33.62554 | -115.91360 | 37498 ft | 564 kts | 96° |
| 2026-04-26 18:20 | 33.62348 | -115.81931 | 37868 ft | 565 kts | 96° |
| 2026-04-26 18:20 | 33.62135 | -115.72490 | 38300 ft | 565 kts | 96° |
| 2026-04-26 18:20 | 33.61917 | -115.63088 | 38699 ft | 564 kts | 96° |
| 2026-04-26 18:20 | 33.61845 | -115.60033 | 38792 ft | 564 kts | 96° |
| 2026-04-26 18:21 | 33.61462 | -115.44303 | 38942 ft | 569 kts | 96° |
| 2026-04-26 18:21 | 33.61225 | -115.34779 | 38923 ft | 573 kts | 96° |
| 2026-04-26 18:21 | 33.60723 | -115.15562 | 38926 ft | 577 kts | 96° |
| 2026-04-26 18:22 | 33.60189 | -114.96247 | 38945 ft | 581 kts | 96° |
| 2026-04-26 18:22 | 33.59721 | -114.80146 | 38959 ft | 582 kts | 96° |
| 2026-04-26 18:23 | 33.58592 | -114.60806 | 38923 ft | 577 kts | 101° |
| 2026-04-26 18:23 | 33.56755 | -114.38619 | 38859 ft | 571 kts | 100° |
| 2026-04-26 18:24 | 33.55542 | -114.22779 | 38882 ft | 567 kts | 100° |
| 2026-04-26 18:24 | 33.54062 | -114.04052 | 38903 ft | 570 kts | 100° |
| 2026-04-26 18:25 | 33.52524 | -113.84993 | 38944 ft | 577 kts | 100° |
| 2026-04-26 18:25 | 33.50944 | -113.65736 | 38970 ft | 582 kts | 100° |
| 2026-04-26 18:26 | 33.49324 | -113.46367 | 38985 ft | 583 kts | 101° |
| 2026-04-26 18:26 | 33.47688 | -113.27157 | 38917 ft | 575 kts | 101° |
| 2026-04-26 18:27 | 33.46042 | -113.08202 | 38884 ft | 568 kts | 101° |
| 2026-04-26 18:27 | 33.44379 | -112.89428 | 38917 ft | 568 kts | 102° |
| 2026-04-26 18:28 | 33.42799 | -112.71881 | 38937 ft | 575 kts | 102° |
| 2026-04-26 18:28 | 33.41050 | -112.52726 | 38933 ft | 582 kts | 102° |
| 2026-04-26 18:29 | 33.39253 | -112.33386 | 38954 ft | 586 kts | 102° |
| 2026-04-26 18:29 | 33.38049 | -112.14622 | 38911 ft | 595 kts | 94° |
| 2026-04-26 18:30 | 33.38154 | -111.94793 | 38934 ft | 596 kts | 94° |
| 2026-04-26 18:30 | 33.38110 | -111.75020 | 38930 ft | 591 kts | 94° |
| 2026-04-26 18:31 | 33.38006 | -111.55490 | 38925 ft | 583 kts | 95° |
| 2026-04-26 18:31 | 33.37884 | -111.36148 | 38904 ft | 579 kts | 95° |
| 2026-04-26 18:32 | 33.37728 | -111.16811 | 38861 ft | 584 kts | 95° |
| 2026-04-26 18:32 | 33.37545 | -110.97360 | 38796 ft | 591 kts | 95° |
| 2026-04-26 18:33 | 33.37329 | -110.77681 | 38840 ft | 592 kts | 95° |
| 2026-04-26 18:33 | 33.37080 | -110.57949 | 38843 ft | 594 kts | 95° |
| 2026-04-26 18:34 | 33.36800 | -110.38153 | 38840 ft | 595 kts | 95° |
| 2026-04-26 18:34 | 33.36488 | -110.18338 | 38831 ft | 596 kts | 95° |
| 2026-04-26 18:35 | 33.36144 | -109.98522 | 38843 ft | 594 kts | 95° |
| 2026-04-26 18:35 | 33.35768 | -109.78754 | 38787 ft | 594 kts | 95° |
| 2026-04-26 18:36 | 33.35369 | -109.59189 | 38808 ft | 592 kts | 96° |
| 2026-04-26 18:36 | 33.34933 | -109.39505 | 38807 ft | 591 kts | 96° |
| 2026-04-26 18:37 | 33.34470 | -109.19896 | 38850 ft | 589 kts | 96° |
| 2026-04-26 18:37 | 33.34226 | -109.10058 | 38749 ft | 592 kts | 96° |
| 2026-04-26 18:37 | 33.33970 | -109.00258 | 38752 ft | 589 kts | 96° |
| 2026-04-26 18:38 | 33.33450 | -108.80684 | 38807 ft | 587 kts | 96° |
| 2026-04-26 18:38 | 33.32891 | -108.61162 | 38777 ft | 587 kts | 96° |
| 2026-04-26 18:39 | 33.32316 | -108.41806 | 38785 ft | 585 kts | 96° |
| 2026-04-26 18:39 | 33.31702 | -108.22407 | 38757 ft | 584 kts | 96° |
| 2026-04-26 18:40 | 33.31061 | -108.03013 | 38757 ft | 582 kts | 96° |
| 2026-04-26 18:40 | 33.30393 | -107.83710 | 38772 ft | 579 kts | 96° |
| 2026-04-26 18:41 | 33.29702 | -107.64627 | 38701 ft | 576 kts | 96° |
| 2026-04-26 18:41 | 33.28984 | -107.45551 | 38882 ft | 572 kts | 96° |
| 2026-04-26 18:42 | 33.28154 | -107.26562 | 38898 ft | 570 kts | 101° |
| 2026-04-26 18:42 | 33.25702 | -107.07943 | 38827 ft | 567 kts | 105° |
| 2026-04-26 18:43 | 33.23174 | -106.89347 | 38725 ft | 567 kts | 104° |
| 2026-04-26 18:43 | 33.21587 | -106.77432 | 38704 ft | 568 kts | 104° |
| 2026-04-26 18:44 | 33.20331 | -106.68099 | 38706 ft | 569 kts | 104° |
| 2026-04-26 18:44 | 33.19070 | -106.58772 | 38698 ft | 569 kts | 104° |
| 2026-04-26 18:45 | 33.17790 | -106.49421 | 38715 ft | 572 kts | 104° |
| 2026-04-26 18:45 | 33.16507 | -106.40078 | 38731 ft | 574 kts | 105° |
| 2026-04-26 18:46 | 33.15210 | -106.30650 | 38750 ft | 577 kts | 104° |
| 2026-04-26 18:46 | 33.13906 | -106.21167 | 38793 ft | 579 kts | 105° |
| 2026-04-26 18:47 | 33.12582 | -106.11673 | 38813 ft | 581 kts | 105° |
| 2026-04-26 18:47 | 33.11241 | -106.02137 | 38805 ft | 583 kts | 105° |
| 2026-04-26 18:48 | 33.09894 | -105.92605 | 38805 ft | 583 kts | 105° |
| 2026-04-26 18:48 | 33.08542 | -105.83075 | 38782 ft | 583 kts | 105° |
| 2026-04-26 18:49 | 33.07191 | -105.73608 | 38755 ft | 582 kts | 105° |
| 2026-04-26 18:49 | 33.05830 | -105.64132 | 38766 ft | 578 kts | 105° |
| 2026-04-26 18:50 | 33.04469 | -105.54702 | 38747 ft | 575 kts | 105° |
| 2026-04-26 18:50 | 33.03110 | -105.45342 | 38752 ft | 572 kts | 105° |
| 2026-04-26 18:51 | 33.01748 | -105.36022 | 38731 ft | 569 kts | 104° |
| 2026-04-26 18:51 | 33.00388 | -105.26746 | 38723 ft | 568 kts | 104° |
| 2026-04-26 18:52 | 32.99024 | -105.17513 | 38728 ft | 570 kts | 105° |
| 2026-04-26 18:52 | 32.97635 | -105.08169 | 38720 ft | 574 kts | 105° |
| 2026-04-26 18:53 | 32.96223 | -104.98779 | 38701 ft | 577 kts | 105° |
| 2026-04-26 18:53 | 32.94804 | -104.89353 | 38700 ft | 578 kts | 105° |
| 2026-04-26 18:54 | 32.93383 | -104.79915 | 38728 ft | 579 kts | 105° |
| 2026-04-26 18:54 | 32.91963 | -104.70525 | 38778 ft | 580 kts | 105° |
| 2026-04-26 18:55 | 32.90525 | -104.61073 | 38842 ft | 580 kts | 105° |
| 2026-04-26 18:55 | 32.89077 | -104.51623 | 38869 ft | 580 kts | 105° |
| 2026-04-26 18:56 | 32.87622 | -104.42174 | 38862 ft | 580 kts | 105° |
| 2026-04-26 18:56 | 32.86161 | -104.32732 | 38842 ft | 580 kts | 105° |
| 2026-04-26 18:57 | 32.84940 | -104.24881 | 38802 ft | 581 kts | 105° |
| 2026-04-26 18:57 | 32.83212 | -104.13829 | 38742 ft | 581 kts | 105° |
| 2026-04-26 18:58 | 32.81728 | -104.04385 | 38695 ft | 581 kts | 105° |
| 2026-04-26 18:58 | 32.80245 | -103.94990 | 38702 ft | 582 kts | 105° |
| 2026-04-26 18:59 | 32.78743 | -103.85533 | 38708 ft | 582 kts | 105° |
| 2026-04-26 18:59 | 32.77232 | -103.76065 | 38711 ft | 582 kts | 105° |
| 2026-04-26 19:00 | 32.75716 | -103.66607 | 38719 ft | 582 kts | 105° |
| 2026-04-26 19:00 | 32.74191 | -103.57147 | 38745 ft | 583 kts | 105° |
| 2026-04-26 19:01 | 32.72660 | -103.47696 | 38789 ft | 583 kts | 105° |
| 2026-04-26 19:01 | 32.71131 | -103.38301 | 38841 ft | 582 kts | 105° |
| 2026-04-26 19:02 | 32.69585 | -103.28855 | 38870 ft | 582 kts | 105° |
| 2026-04-26 19:02 | 32.68547 | -103.22535 | 38867 ft | 583 kts | 105° |
| 2026-04-26 19:03 | 32.66472 | -103.09964 | 38862 ft | 583 kts | 105° |
| 2026-04-26 19:03 | 32.64907 | -103.00537 | 38813 ft | 583 kts | 105° |
| 2026-04-26 19:04 | 32.63332 | -102.91095 | 38799 ft | 583 kts | 105° |
| 2026-04-26 19:04 | 32.61750 | -102.81659 | 38853 ft | 583 kts | 105° |
| 2026-04-26 19:05 | 32.59375 | -102.67572 | 38896 ft | 583 kts | 105° |
| 2026-04-26 19:06 | 32.57774 | -102.58138 | 38878 ft | 583 kts | 105° |
| 2026-04-26 19:06 | 32.56168 | -102.48712 | 38830 ft | 583 kts | 105° |
| 2026-04-26 19:07 | 32.54552 | -102.39279 | 38776 ft | 583 kts | 105° |
| 2026-04-26 19:07 | 32.52942 | -102.29922 | 38724 ft | 583 kts | 105° |
| 2026-04-26 19:08 | 32.51579 | -102.22031 | 38712 ft | 582 kts | 105° |
| 2026-04-26 19:08 | 32.49947 | -102.12631 | 38737 ft | 582 kts | 105° |
| 2026-04-26 19:09 | 32.48320 | -102.03295 | 38756 ft | 582 kts | 105° |
| 2026-04-26 19:09 | 32.46674 | -101.93900 | 38752 ft | 582 kts | 105° |
| 2026-04-26 19:10 | 32.45021 | -101.84503 | 38738 ft | 582 kts | 105° |
| 2026-04-26 19:10 | 32.43362 | -101.75116 | 38744 ft | 582 kts | 105° |
| 2026-04-26 19:11 | 32.41699 | -101.65748 | 38783 ft | 581 kts | 105° |
| 2026-04-26 19:11 | 32.40029 | -101.56384 | 38805 ft | 581 kts | 105° |
| 2026-04-26 19:12 | 32.38323 | -101.47093 | 38799 ft | 579 kts | 109° |
| 2026-04-26 19:12 | 32.36160 | -101.37939 | 38799 ft | 577 kts | 111° |
| 2026-04-26 19:13 | 32.33884 | -101.28844 | 38775 ft | 577 kts | 111° |
| 2026-04-26 19:13 | 32.31618 | -101.19737 | 38751 ft | 577 kts | 111° |
| 2026-04-26 19:14 | 32.29379 | -101.10626 | 38716 ft | 577 kts | 110° |
| 2026-04-26 19:14 | 32.27146 | -101.01518 | 38716 ft | 576 kts | 110° |
| 2026-04-26 19:15 | 32.24918 | -100.92472 | 38717 ft | 576 kts | 110° |
| 2026-04-26 19:15 | 32.22670 | -100.83386 | 38719 ft | 577 kts | 110° |
| 2026-04-26 19:16 | 32.20407 | -100.74279 | 38732 ft | 577 kts | 110° |
| 2026-04-26 19:16 | 32.18140 | -100.65186 | 38745 ft | 578 kts | 110° |
| 2026-04-26 19:17 | 32.15862 | -100.56075 | 38745 ft | 578 kts | 110° |
| 2026-04-26 19:17 | 32.13573 | -100.46950 | 38742 ft | 578 kts | 110° |
| 2026-04-26 19:18 | 32.11296 | -100.37907 | 38734 ft | 579 kts | 110° |
| 2026-04-26 19:18 | 32.08999 | -100.28811 | 38740 ft | 579 kts | 110° |
| 2026-04-26 19:19 | 32.06693 | -100.19712 | 38742 ft | 579 kts | 110° |
| 2026-04-26 19:19 | 32.04378 | -100.10610 | 38752 ft | 579 kts | 110° |
| 2026-04-26 19:20 | 32.02057 | -100.01510 | 38761 ft | 579 kts | 110° |
| 2026-04-26 19:20 | 31.99730 | -99.92419 | 38770 ft | 579 kts | 110° |
| 2026-04-26 19:21 | 31.97392 | -99.83317 | 38771 ft | 580 kts | 110° |
| 2026-04-26 19:21 | 31.95052 | -99.74235 | 38789 ft | 580 kts | 110° |
| 2026-04-26 19:22 | 31.92702 | -99.65141 | 38818 ft | 580 kts | 110° |
| 2026-04-26 19:22 | 31.90359 | -99.56105 | 38839 ft | 580 kts | 110° |
| 2026-04-26 19:23 | 31.87993 | -99.47013 | 38856 ft | 580 kts | 110° |
| 2026-04-26 19:23 | 31.85620 | -99.37920 | 38857 ft | 580 kts | 110° |
| 2026-04-26 19:24 | 31.83246 | -99.28854 | 38858 ft | 580 kts | 110° |
| 2026-04-26 19:24 | 31.79685 | -99.15313 | 38832 ft | 580 kts | 110° |
| 2026-04-26 19:25 | 31.77697 | -99.07781 | 38829 ft | 580 kts | 110° |
| 2026-04-26 19:25 | 31.74896 | -98.97199 | 38827 ft | 580 kts | 110° |
| 2026-04-26 19:26 | 31.72490 | -98.88140 | 38838 ft | 580 kts | 110° |
| 2026-04-26 19:26 | 31.70082 | -98.79106 | 38811 ft | 580 kts | 110° |
| 2026-04-26 19:27 | 31.67682 | -98.70127 | 38819 ft | 580 kts | 110° |
| 2026-04-26 19:27 | 31.65258 | -98.61090 | 38824 ft | 580 kts | 110° |
| 2026-04-26 19:28 | 31.62829 | -98.52061 | 38818 ft | 580 kts | 110° |
| 2026-04-26 19:28 | 31.60397 | -98.43046 | 38836 ft | 580 kts | 110° |
| 2026-04-26 19:29 | 31.57956 | -98.34029 | 38854 ft | 580 kts | 110° |
| 2026-04-26 19:29 | 31.55510 | -98.25015 | 38858 ft | 580 kts | 110° |
| 2026-04-26 19:30 | 31.53107 | -98.15983 | 38857 ft | 580 kts | 107° |
| 2026-04-26 19:30 | 31.51388 | -98.08374 | 38861 ft | 580 kts | 106° |
| 2026-04-26 19:31 | 31.49099 | -97.97709 | 38852 ft | 580 kts | 105° |
| 2026-04-26 19:31 | 31.47101 | -97.88539 | 38860 ft | 581 kts | 106° |
| 2026-04-26 19:32 | 31.45054 | -97.79322 | 38858 ft | 581 kts | 106° |
| 2026-04-26 19:32 | 31.43016 | -97.70217 | 38861 ft | 581 kts | 106° |
| 2026-04-26 19:33 | 31.40962 | -97.61062 | 38846 ft | 581 kts | 106° |
| 2026-04-26 19:33 | 31.38907 | -97.51920 | 38853 ft | 581 kts | 106° |
| 2026-04-26 19:34 | 31.36842 | -97.42764 | 38859 ft | 580 kts | 106° |
| 2026-04-26 19:34 | 31.34775 | -97.33633 | 38860 ft | 580 kts | 106° |
| 2026-04-26 19:35 | 31.32703 | -97.24516 | 38855 ft | 580 kts | 106° |
| 2026-04-26 19:35 | 31.30624 | -97.15398 | 38838 ft | 580 kts | 106° |
| 2026-04-26 19:36 | 31.28890 | -97.07817 | 38821 ft | 580 kts | 106° |
| 2026-04-26 19:36 | 31.26460 | -96.97233 | 38784 ft | 580 kts | 106° |
| 2026-04-26 19:37 | 31.24359 | -96.88112 | 38778 ft | 580 kts | 106° |
| 2026-04-26 19:37 | 31.22252 | -96.79002 | 38770 ft | 580 kts | 106° |
| 2026-04-26 19:38 | 31.20145 | -96.69909 | 38777 ft | 580 kts | 106° |
| 2026-04-26 19:38 | 31.17881 | -96.60866 | 38773 ft | 579 kts | 109° |
| 2026-04-26 19:39 | 31.15320 | -96.51939 | 38780 ft | 579 kts | 110° |
| 2026-04-26 19:39 | 31.12752 | -96.43105 | 38771 ft | 578 kts | 110° |
| 2026-04-26 19:40 | 31.10220 | -96.34194 | 38758 ft | 578 kts | 109° |
| 2026-04-26 19:40 | 31.07718 | -96.25273 | 38735 ft | 578 kts | 109° |
| 2026-04-26 19:41 | 31.05208 | -96.16358 | 38724 ft | 578 kts | 109° |
| 2026-04-26 19:41 | 31.03520 | -96.10396 | 38715 ft | 578 kts | 109° |
| 2026-04-26 19:42 | 31.00156 | -95.98568 | 38707 ft | 577 kts | 109° |
| 2026-04-26 19:42 | 30.97623 | -95.89693 | 38715 ft | 577 kts | 109° |
| 2026-04-26 19:43 | 30.95088 | -95.80833 | 38780 ft | 576 kts | 109° |
| 2026-04-26 19:43 | 30.92565 | -95.72042 | 38824 ft | 576 kts | 109° |
| 2026-04-26 19:44 | 30.90020 | -95.63195 | 38863 ft | 575 kts | 109° |
| 2026-04-26 19:44 | 30.87471 | -95.54363 | 38873 ft | 575 kts | 109° |
| 2026-04-26 19:45 | 30.84924 | -95.45560 | 38873 ft | 574 kts | 109° |
| 2026-04-26 19:45 | 30.82365 | -95.36745 | 38884 ft | 573 kts | 109° |
| 2026-04-26 19:46 | 30.79812 | -95.27976 | 38885 ft | 572 kts | 109° |
| 2026-04-26 19:46 | 30.77254 | -95.19214 | 38891 ft | 571 kts | 109° |
| 2026-04-26 19:47 | 30.75558 | -95.13435 | 38893 ft | 569 kts | 109° |
| 2026-04-26 19:47 | 30.72151 | -95.01847 | 38902 ft | 568 kts | 109° |
| 2026-04-26 19:48 | 30.69597 | -94.93167 | 38910 ft | 567 kts | 109° |
| 2026-04-26 19:48 | 30.67045 | -94.84517 | 38927 ft | 566 kts | 109° |
| 2026-04-26 19:49 | 30.64486 | -94.75871 | 38910 ft | 565 kts | 109° |
| 2026-04-26 19:49 | 30.62340 | -94.68642 | 38925 ft | 564 kts | 109° |
| 2026-04-26 19:50 | 30.59781 | -94.60038 | 38927 ft | 564 kts | 109° |
| 2026-04-26 19:50 | 30.57216 | -94.51443 | 38930 ft | 562 kts | 109° |
| 2026-04-26 19:51 | 30.54652 | -94.42872 | 38931 ft | 562 kts | 109° |
| 2026-04-26 19:51 | 30.52087 | -94.34321 | 38928 ft | 561 kts | 109° |
| 2026-04-26 19:52 | 30.49531 | -94.25822 | 38930 ft | 561 kts | 109° |
| 2026-04-26 19:52 | 30.46949 | -94.17262 | 38912 ft | 562 kts | 109° |
| 2026-04-26 19:53 | 30.44363 | -94.08707 | 38912 ft | 562 kts | 109° |
| 2026-04-26 19:53 | 30.41770 | -94.00156 | 38928 ft | 562 kts | 109° |
| 2026-04-26 19:54 | 30.39171 | -93.91608 | 38932 ft | 562 kts | 109° |
| 2026-04-26 19:54 | 30.36586 | -93.83128 | 38923 ft | 562 kts | 109° |
| 2026-04-26 19:55 | 30.33979 | -93.74598 | 38928 ft | 561 kts | 109° |
| 2026-04-26 19:55 | 30.31370 | -93.66084 | 38937 ft | 561 kts | 109° |
| 2026-04-26 19:56 | 30.28749 | -93.57555 | 38921 ft | 561 kts | 109° |
| 2026-04-26 19:56 | 30.26130 | -93.49054 | 38926 ft | 560 kts | 109° |
| 2026-04-26 19:57 | 30.23525 | -93.40618 | 38935 ft | 559 kts | 109° |
| 2026-04-26 19:57 | 30.20902 | -93.32149 | 38933 ft | 559 kts | 109° |
| 2026-04-26 19:58 | 30.18274 | -93.23684 | 38917 ft | 559 kts | 109° |
| 2026-04-26 19:58 | 30.15643 | -93.15227 | 38918 ft | 559 kts | 109° |
| 2026-04-26 19:59 | 30.13027 | -93.06829 | 38916 ft | 558 kts | 109° |
| 2026-04-26 19:59 | 30.10417 | -92.98375 | 38918 ft | 558 kts | 109° |
| 2026-04-26 20:00 | 30.07811 | -92.89930 | 38917 ft | 557 kts | 109° |
| 2026-04-26 20:00 | 30.05200 | -92.81499 | 38922 ft | 557 kts | 109° |
| 2026-04-26 20:01 | 30.02582 | -92.73078 | 38908 ft | 557 kts | 109° |
| 2026-04-26 20:01 | 29.99971 | -92.64707 | 38928 ft | 558 kts | 109° |
| 2026-04-26 20:02 | 29.97336 | -92.56278 | 38934 ft | 558 kts | 108° |
| 2026-04-26 20:02 | 29.95141 | -92.49271 | 38920 ft | 559 kts | 109° |
| 2026-04-26 20:03 | 29.92046 | -92.39415 | 38932 ft | 559 kts | 109° |
| 2026-04-26 20:03 | 29.89404 | -92.31028 | 38923 ft | 559 kts | 109° |
| 2026-04-26 20:04 | 29.86749 | -92.22610 | 38920 ft | 559 kts | 109° |
| 2026-04-26 20:04 | 29.84086 | -92.14190 | 38920 ft | 558 kts | 109° |
| 2026-04-26 20:05 | 29.81422 | -92.05796 | 38924 ft | 558 kts | 109° |
| 2026-04-26 20:05 | 29.78754 | -91.97415 | 38925 ft | 557 kts | 109° |
| 2026-04-26 20:06 | 29.76082 | -91.89038 | 38930 ft | 557 kts | 109° |
| 2026-04-26 20:06 | 29.73403 | -91.80660 | 38938 ft | 557 kts | 109° |
| 2026-04-26 20:07 | 29.70723 | -91.72300 | 38947 ft | 557 kts | 109° |
| 2026-04-26 20:07 | 29.68048 | -91.63977 | 38947 ft | 558 kts | 109° |
| 2026-04-26 20:08 | 29.65346 | -91.55588 | 38944 ft | 559 kts | 109° |
| 2026-04-26 20:08 | 29.62639 | -91.47206 | 38958 ft | 559 kts | 109° |
| 2026-04-26 20:09 | 29.59927 | -91.38830 | 38960 ft | 559 kts | 109° |
| 2026-04-26 20:09 | 29.57206 | -91.30447 | 38960 ft | 560 kts | 109° |
| 2026-04-26 20:10 | 29.54482 | -91.22076 | 38958 ft | 560 kts | 109° |
| 2026-04-26 20:10 | 29.51751 | -91.13704 | 38944 ft | 560 kts | 109° |
| 2026-04-26 20:11 | 29.49016 | -91.05341 | 38946 ft | 559 kts | 109° |
| 2026-04-26 20:12 | 29.44903 | -90.92799 | 38951 ft | 559 kts | 109° |
| 2026-04-26 20:12 | 29.42158 | -90.84456 | 38958 ft | 559 kts | 109° |
| 2026-04-26 20:13 | 29.39403 | -90.76101 | 38965 ft | 560 kts | 109° |
| 2026-04-26 20:13 | 29.36661 | -90.67809 | 38956 ft | 560 kts | 109° |
| 2026-04-26 20:14 | 29.33898 | -90.59471 | 38953 ft | 560 kts | 109° |
| 2026-04-26 20:14 | 29.31126 | -90.51125 | 38963 ft | 560 kts | 109° |
| 2026-04-26 20:15 | 29.28346 | -90.42779 | 38987 ft | 560 kts | 109° |
| 2026-04-26 20:15 | 29.25564 | -90.34445 | 38972 ft | 560 kts | 109° |
| 2026-04-26 20:16 | 29.22775 | -90.26108 | 38966 ft | 560 kts | 109° |
| 2026-04-26 20:16 | 29.19996 | -90.17823 | 38964 ft | 560 kts | 109° |
| 2026-04-26 20:17 | 29.17194 | -90.09492 | 38958 ft | 560 kts | 110° |
| 2026-04-26 20:17 | 29.14197 | -90.01241 | 38950 ft | 561 kts | 112° |
| 2026-04-26 20:18 | 29.11071 | -89.93060 | 38949 ft | 561 kts | 112° |
| 2026-04-26 20:18 | 29.07956 | -89.84877 | 38948 ft | 561 kts | 112° |
| 2026-04-26 20:19 | 29.04869 | -89.76678 | 38951 ft | 561 kts | 112° |
| 2026-04-26 20:19 | 29.01794 | -89.68493 | 38951 ft | 561 kts | 112° |
| 2026-04-26 20:20 | 28.98730 | -89.60359 | 38948 ft | 560 kts | 112° |
| 2026-04-26 20:20 | 28.95642 | -89.52190 | 38948 ft | 560 kts | 112° |
| 2026-04-26 20:21 | 28.92549 | -89.44026 | 38951 ft | 559 kts | 112° |
| 2026-04-26 20:21 | 28.89456 | -89.35884 | 38949 ft | 559 kts | 112° |
| 2026-04-26 20:22 | 28.86360 | -89.27748 | 38953 ft | 558 kts | 112° |
| 2026-04-26 20:22 | 28.83261 | -89.19621 | 38955 ft | 558 kts | 112° |
| 2026-04-26 20:23 | 28.80178 | -89.11555 | 38952 ft | 558 kts | 112° |
| 2026-04-26 20:23 | 28.77077 | -89.03458 | 38960 ft | 557 kts | 112° |
| 2026-04-26 20:24 | 28.73968 | -88.95358 | 38955 ft | 557 kts | 112° |
| 2026-04-26 20:24 | 28.70853 | -88.87261 | 38963 ft | 557 kts | 112° |
| 2026-04-26 20:25 | 28.67741 | -88.79188 | 38960 ft | 556 kts | 112° |
| 2026-04-26 20:25 | 28.64638 | -88.71157 | 38962 ft | 556 kts | 112° |
| 2026-04-26 20:26 | 28.61521 | -88.63104 | 38965 ft | 556 kts | 112° |
| 2026-04-26 20:26 | 28.58397 | -88.55052 | 38962 ft | 556 kts | 112° |
| 2026-04-26 20:27 | 28.55267 | -88.47002 | 38965 ft | 556 kts | 112° |
| 2026-04-26 20:27 | 28.52133 | -88.38958 | 38964 ft | 556 kts | 112° |
| 2026-04-26 20:28 | 28.48998 | -88.30928 | 38963 ft | 556 kts | 112° |
| 2026-04-26 20:28 | 28.45876 | -88.22947 | 38966 ft | 556 kts | 112° |
| 2026-04-26 20:29 | 28.42730 | -88.14923 | 38965 ft | 556 kts | 112° |
| 2026-04-26 20:29 | 28.39577 | -88.06898 | 38962 ft | 556 kts | 112° |
| 2026-04-26 20:30 | 28.36748 | -87.98752 | 38970 ft | 554 kts | 106° |
| 2026-04-26 20:30 | 28.34387 | -87.90421 | 38967 ft | 554 kts | 105° |
| 2026-04-26 20:31 | 28.32047 | -87.82073 | 38966 ft | 555 kts | 105° |
| 2026-04-26 20:31 | 28.29659 | -87.73741 | 38967 ft | 555 kts | 105° |
| 2026-04-26 20:32 | 28.27242 | -87.65422 | 38969 ft | 555 kts | 105° |
| 2026-04-26 20:32 | 28.24834 | -87.57161 | 38967 ft | 555 kts | 105° |
| 2026-04-26 20:33 | 28.22404 | -87.48832 | 38971 ft | 555 kts | 105° |
| 2026-04-26 20:33 | 28.20384 | -87.41915 | 38966 ft | 555 kts | 106° |
| 2026-04-26 20:34 | 28.17954 | -87.33615 | 38971 ft | 555 kts | 106° |
| 2026-04-26 20:34 | 28.15517 | -87.25316 | 38969 ft | 555 kts | 106° |
| 2026-04-26 20:35 | 28.13076 | -87.17022 | 38968 ft | 554 kts | 106° |
| 2026-04-26 20:35 | 28.10632 | -87.08742 | 38966 ft | 554 kts | 106° |
| 2026-04-26 20:36 | 28.08179 | -87.00448 | 38970 ft | 554 kts | 106° |
| 2026-04-26 20:36 | 28.05741 | -86.92226 | 38970 ft | 554 kts | 106° |
| 2026-04-26 20:37 | 28.03283 | -86.83960 | 38968 ft | 554 kts | 106° |
| 2026-04-26 20:37 | 28.00818 | -86.75684 | 38971 ft | 554 kts | 106° |
| 2026-04-26 20:38 | 27.98403 | -86.67401 | 38966 ft | 554 kts | 105° |
| 2026-04-26 20:38 | 27.96021 | -86.59112 | 38967 ft | 554 kts | 105° |
| 2026-04-26 20:39 | 27.93631 | -86.50832 | 38967 ft | 554 kts | 105° |
| 2026-04-26 20:39 | 27.91226 | -86.42563 | 38967 ft | 553 kts | 105° |
| 2026-04-26 20:40 | 27.88826 | -86.34338 | 38971 ft | 553 kts | 105° |
| 2026-04-26 20:40 | 27.86413 | -86.26091 | 38970 ft | 553 kts | 105° |
| 2026-04-26 20:41 | 27.83994 | -86.17837 | 38968 ft | 552 kts | 105° |
| 2026-04-26 20:41 | 27.81574 | -86.09599 | 38970 ft | 552 kts | 105° |
| 2026-04-26 20:42 | 27.79153 | -86.01382 | 38968 ft | 551 kts | 105° |
| 2026-04-26 20:42 | 27.76729 | -85.93173 | 38966 ft | 551 kts | 105° |
| 2026-04-26 20:43 | 27.74301 | -85.84971 | 38968 ft | 550 kts | 105° |
| 2026-04-26 20:43 | 27.71874 | -85.76790 | 38967 ft | 549 kts | 105° |
| 2026-04-26 20:44 | 27.69445 | -85.68624 | 38967 ft | 549 kts | 105° |
| 2026-04-26 20:44 | 27.67013 | -85.60468 | 38964 ft | 548 kts | 105° |
| 2026-04-26 20:45 | 27.64593 | -85.52374 | 38964 ft | 547 kts | 105° |
| 2026-04-26 20:45 | 27.62158 | -85.44247 | 38967 ft | 547 kts | 105° |
| 2026-04-26 20:46 | 27.59730 | -85.36130 | 38967 ft | 545 kts | 104° |
| 2026-04-26 20:46 | 27.57967 | -85.27868 | 38964 ft | 540 kts | 96° |
| 2026-04-26 20:47 | 27.56636 | -85.19544 | 38966 ft | 539 kts | 96° |
| 2026-04-26 20:47 | 27.55193 | -85.11236 | 38965 ft | 539 kts | 97° |
| 2026-04-26 20:48 | 27.53730 | -85.02999 | 38967 ft | 539 kts | 97° |
| 2026-04-26 20:48 | 27.52263 | -84.94718 | 38964 ft | 538 kts | 97° |
| 2026-04-26 20:49 | 27.50798 | -84.86451 | 38969 ft | 537 kts | 97° |
| 2026-04-26 20:49 | 27.49330 | -84.78199 | 38968 ft | 537 kts | 97° |
| 2026-04-26 20:50 | 27.47864 | -84.69962 | 38962 ft | 536 kts | 97° |
| 2026-04-26 20:50 | 27.46399 | -84.61738 | 38966 ft | 535 kts | 97° |
| 2026-04-26 20:51 | 27.44938 | -84.53575 | 38958 ft | 534 kts | 98° |
| 2026-04-26 20:51 | 27.43465 | -84.45377 | 38962 ft | 533 kts | 98° |
| 2026-04-26 20:52 | 27.41991 | -84.37200 | 38965 ft | 533 kts | 98° |
| 2026-04-26 20:52 | 27.40513 | -84.29029 | 38963 ft | 532 kts | 98° |
| 2026-04-26 20:53 | 27.39030 | -84.20863 | 38962 ft | 531 kts | 98° |
| 2026-04-26 20:53 | 27.37545 | -84.12713 | 38963 ft | 531 kts | 98° |
| 2026-04-26 20:54 | 27.36067 | -84.04633 | 38964 ft | 530 kts | 98° |
| 2026-04-26 20:54 | 27.34578 | -83.96514 | 38961 ft | 529 kts | 98° |
| 2026-04-26 20:55 | 27.33087 | -83.88414 | 38958 ft | 529 kts | 98° |
| 2026-04-26 20:55 | 27.31590 | -83.80312 | 38958 ft | 528 kts | 98° |
| 2026-04-26 20:56 | 27.30093 | -83.72237 | 38958 ft | 527 kts | 98° |
| 2026-04-26 20:56 | 27.28595 | -83.64182 | 38961 ft | 526 kts | 99° |
| 2026-04-26 20:57 | 27.27095 | -83.56142 | 38960 ft | 525 kts | 99° |
| 2026-04-26 20:57 | 27.25594 | -83.48124 | 38956 ft | 524 kts | 99° |
| 2026-04-26 20:58 | 27.24091 | -83.40125 | 38958 ft | 523 kts | 99° |
| 2026-04-26 20:58 | 27.22587 | -83.32143 | 38961 ft | 522 kts | 99° |
| 2026-04-26 20:59 | 27.21088 | -83.24218 | 38954 ft | 521 kts | 99° |
| 2026-04-26 20:59 | 27.19578 | -83.16259 | 38957 ft | 520 kts | 99° |
| 2026-04-26 21:00 | 27.18070 | -83.08331 | 38954 ft | 519 kts | 99° |
| 2026-04-26 21:00 | 27.16558 | -83.00413 | 38954 ft | 517 kts | 100° |
| 2026-04-26 21:01 | 27.15045 | -82.92515 | 38960 ft | 516 kts | 100° |
| 2026-04-26 21:01 | 27.13475 | -82.84649 | 38960 ft | 516 kts | 105° |
| 2026-04-26 21:01 | 27.12045 | -82.80965 | 38960 ft | 514 kts | 120° |
| 2026-04-26 21:02 | 27.10179 | -82.77597 | 38969 ft | 514 kts | 123° |
| 2026-04-26 21:02 | 27.06321 | -82.70987 | 38849 ft | 499 kts | 123° |
| 2026-04-26 21:02 | 27.04437 | -82.67689 | 38074 ft | 502 kts | 122° |
| 2026-04-26 21:03 | 27.02590 | -82.64382 | 37625 ft | 496 kts | 121° |
| 2026-04-26 21:03 | 27.00785 | -82.61107 | 37191 ft | 490 kts | 121° |
| 2026-04-26 21:03 | 26.99013 | -82.57873 | 36799 ft | 484 kts | 121° |
| 2026-04-26 21:03 | 26.97257 | -82.54674 | 36390 ft | 478 kts | 121° |
| 2026-04-26 21:04 | 26.95522 | -82.51520 | 36009 ft | 472 kts | 121° |
| 2026-04-26 21:04 | 26.93801 | -82.48399 | 35620 ft | 467 kts | 121° |
| 2026-04-26 21:04 | 26.92114 | -82.45359 | 35228 ft | 463 kts | 123° |
| 2026-04-26 21:04 | 26.90089 | -82.42601 | 34802 ft | 455 kts | 139° |
| 2026-04-26 21:05 | 26.87706 | -82.40300 | 34435 ft | 450 kts | 141° |
| 2026-04-26 21:05 | 26.85296 | -82.38076 | 34041 ft | 447 kts | 142° |
| 2026-04-26 21:05 | 26.82903 | -82.35876 | 33586 ft | 444 kts | 141° |
| 2026-04-26 21:05 | 26.80534 | -82.33672 | 33154 ft | 441 kts | 141° |
| 2026-04-26 21:06 | 26.78189 | -82.31462 | 32744 ft | 438 kts | 141° |
| 2026-04-26 21:06 | 26.75875 | -82.29260 | 32330 ft | 435 kts | 141° |
| 2026-04-26 21:06 | 26.73575 | -82.27060 | 31943 ft | 432 kts | 141° |
| 2026-04-26 21:06 | 26.71299 | -82.24879 | 31542 ft | 429 kts | 141° |
| 2026-04-26 21:07 | 26.69036 | -82.22712 | 31167 ft | 427 kts | 141° |
| 2026-04-26 21:07 | 26.66785 | -82.20558 | 30772 ft | 425 kts | 141° |
| 2026-04-26 21:07 | 26.64571 | -82.18442 | 30383 ft | 423 kts | 141° |
| 2026-04-26 21:07 | 26.62311 | -82.16284 | 29974 ft | 421 kts | 141° |
| 2026-04-26 21:08 | 26.60083 | -82.14157 | 29528 ft | 419 kts | 141° |
| 2026-04-26 21:08 | 26.57908 | -82.12083 | 29087 ft | 415 kts | 141° |
| 2026-04-26 21:08 | 26.55709 | -82.09987 | 28649 ft | 412 kts | 141° |
| 2026-04-26 21:08 | 26.53527 | -82.07907 | 28238 ft | 409 kts | 141° |
| 2026-04-26 21:09 | 26.51386 | -82.05829 | 27726 ft | 407 kts | 140° |
| 2026-04-26 21:09 | 26.49260 | -82.03697 | 26976 ft | 414 kts | 139° |
| 2026-04-26 21:09 | 26.47138 | -82.01542 | 26214 ft | 421 kts | 139° |
| 2026-04-26 21:09 | 26.44971 | -81.99339 | 25617 ft | 422 kts | 139° |
| 2026-04-26 21:10 | 26.42793 | -81.97131 | 25034 ft | 422 kts | 139° |
| 2026-04-26 21:10 | 26.40614 | -81.94930 | 24508 ft | 422 kts | 139° |
| 2026-04-26 21:10 | 26.38445 | -81.92746 | 24161 ft | 418 kts | 139° |
| 2026-04-26 21:10 | 26.36238 | -81.90530 | 24014 ft | 439 kts | 139° |
| 2026-04-26 21:11 | 26.33918 | -81.88203 | 23977 ft | 454 kts | 139° |
| 2026-04-26 21:11 | 26.31565 | -81.85840 | 23964 ft | 457 kts | 139° |
| 2026-04-26 21:11 | 26.29207 | -81.83471 | 23646 ft | 453 kts | 139° |
| 2026-04-26 21:11 | 26.26873 | -81.81129 | 22964 ft | 449 kts | 139° |
| 2026-04-26 21:12 | 26.24580 | -81.78800 | 22267 ft | 442 kts | 136° |
| 2026-04-26 21:12 | 26.22695 | -81.76108 | 21473 ft | 439 kts | 118° |
| 2026-04-26 21:12 | 26.21402 | -81.73097 | 20662 ft | 437 kts | 114° |
| 2026-04-26 21:12 | 26.20144 | -81.70019 | 19972 ft | 435 kts | 114° |
| 2026-04-26 21:13 | 26.18886 | -81.66977 | 19429 ft | 430 kts | 115° |
| 2026-04-26 21:13 | 26.17621 | -81.63979 | 18904 ft | 425 kts | 115° |
| 2026-04-26 21:13 | 26.16353 | -81.61024 | 18366 ft | 421 kts | 115° |
| 2026-04-26 21:13 | 26.15085 | -81.58100 | 17738 ft | 418 kts | 115° |
| 2026-04-26 21:14 | 26.13821 | -81.55202 | 17389 ft | 409 kts | 115° |
| 2026-04-26 21:14 | 26.12588 | -81.52378 | 17234 ft | 404 kts | 115° |
| 2026-04-26 21:14 | 26.11370 | -81.49577 | 16715 ft | 401 kts | 115° |
| 2026-04-26 21:14 | 26.10156 | -81.46785 | 16056 ft | 401 kts | 115° |
| 2026-04-26 21:15 | 26.08938 | -81.43986 | 15396 ft | 401 kts | 115° |
| 2026-04-26 21:15 | 26.07723 | -81.41196 | 14798 ft | 400 kts | 115° |
| 2026-04-26 21:15 | 26.06512 | -81.38416 | 14270 ft | 397 kts | 115° |
| 2026-04-26 21:15 | 26.05312 | -81.35665 | 13772 ft | 393 kts | 115° |
| 2026-04-26 21:16 | 26.04122 | -81.32940 | 13230 ft | 390 kts | 115° |
| 2026-04-26 21:16 | 26.02959 | -81.30277 | 12697 ft | 386 kts | 115° |
| 2026-04-26 21:16 | 26.01793 | -81.27611 | 12187 ft | 381 kts | 115° |
| 2026-04-26 21:16 | 26.00648 | -81.24992 | 11965 ft | 369 kts | 115° |
| 2026-04-26 21:17 | 25.99548 | -81.22478 | 11878 ft | 354 kts | 115° |
| 2026-04-26 21:17 | 25.98491 | -81.20064 | 11780 ft | 340 kts | 115° |
| 2026-04-26 21:17 | 25.97475 | -81.17745 | 11644 ft | 328 kts | 115° |
| 2026-04-26 21:17 | 25.96491 | -81.15502 | 11461 ft | 319 kts | 115° |
| 2026-04-26 21:18 | 25.95840 | -81.14016 | 11275 ft | 315 kts | 115° |
| 2026-04-26 21:18 | 25.94883 | -81.11833 | 10998 ft | 313 kts | 115° |
| 2026-04-26 21:18 | 25.93946 | -81.09695 | 10755 ft | 311 kts | 115° |
| 2026-04-26 21:18 | 25.92989 | -81.07509 | 10377 ft | 310 kts | 115° |
| 2026-04-26 21:19 | 25.92046 | -81.05357 | 10017 ft | 309 kts | 115° |
| 2026-04-26 21:19 | 25.91114 | -81.03221 | 9679 ft | 306 kts | 114° |
| 2026-04-26 21:19 | 25.90266 | -81.01066 | 9320 ft | 303 kts | 112° |
| 2026-04-26 21:19 | 25.89457 | -80.98915 | 9055 ft | 298 kts | 112° |
| 2026-04-26 21:20 | 25.88663 | -80.96824 | 8816 ft | 293 kts | 112° |
| 2026-04-26 21:20 | 25.87857 | -80.94761 | 8545 ft | 297 kts | 113° |
| 2026-04-26 21:20 | 25.87031 | -80.92651 | 8298 ft | 298 kts | 113° |
| 2026-04-26 21:20 | 25.86202 | -80.90531 | 7999 ft | 300 kts | 113° |
| 2026-04-26 21:21 | 25.85381 | -80.88419 | 7703 ft | 296 kts | 113° |
| 2026-04-26 21:21 | 25.84568 | -80.86315 | 7249 ft | 298 kts | 113° |
| 2026-04-26 21:21 | 25.83756 | -80.84196 | 6852 ft | 298 kts | 113° |
| 2026-04-26 21:21 | 25.83035 | -80.82061 | 6369 ft | 295 kts | 103° |
| 2026-04-26 21:22 | 25.82744 | -80.79831 | 5977 ft | 284 kts | 96° |
| 2026-04-26 21:22 | 25.82542 | -80.77703 | 5601 ft | 271 kts | 96° |
| 2026-04-26 21:22 | 25.82347 | -80.75661 | 5235 ft | 261 kts | 96° |
| 2026-04-26 21:23 | 25.81960 | -80.71770 | 4519 ft | 243 kts | 97° |
| 2026-04-26 21:23 | 25.81773 | -80.69939 | 4131 ft | 238 kts | 97° |
| 2026-04-26 21:23 | 25.81585 | -80.68128 | 3690 ft | 236 kts | 98° |
| 2026-04-26 21:23 | 25.81403 | -80.66393 | 3373 ft | 238 kts | 97° |
| 2026-04-26 21:24 | 25.81209 | -80.64553 | 3066 ft | 239 kts | 97° |
| 2026-04-26 21:24 | 25.81017 | -80.62729 | 3002 ft | 238 kts | 97° |
| 2026-04-26 21:24 | 25.80824 | -80.60864 | 2967 ft | 247 kts | 97° |
| 2026-04-26 21:24 | 25.80623 | -80.58998 | 2957 ft | 246 kts | 97° |
| 2026-04-26 21:25 | 25.80422 | -80.57135 | 2965 ft | 242 kts | 98° |
| 2026-04-26 21:25 | 25.80225 | -80.55305 | 2969 ft | 236 kts | 97° |
| 2026-04-26 21:25 | 25.80034 | -80.53513 | 2958 ft | 232 kts | 97° |
| 2026-04-26 21:25 | 25.79844 | -80.51731 | 2957 ft | 231 kts | 98° |
| 2026-04-26 21:26 | 25.79657 | -80.49973 | 2950 ft | 228 kts | 98° |
| 2026-04-26 21:26 | 25.79470 | -80.48227 | 2940 ft | 226 kts | 97° |
| 2026-04-26 21:26 | 25.79382 | -80.46500 | 2775 ft | 221 kts | 89° |
| 2026-04-26 21:26 | 25.79450 | -80.44852 | 2582 ft | 207 kts | 88° |
| 2026-04-26 21:27 | 25.79524 | -80.43317 | 2314 ft | 191 kts | 88° |
| 2026-04-26 21:27 | 25.79585 | -80.41876 | 2080 ft | 183 kts | 88° |
| 2026-04-26 21:27 | 25.79644 | -80.40466 | 1869 ft | 184 kts | 89° |
| 2026-04-26 21:27 | 25.79702 | -80.39066 | 1628 ft | 182 kts | 89° |
| 2026-04-26 21:28 | 25.79759 | -80.37687 | 1352 ft | 174 kts | 91° |
| 2026-04-26 21:28 | 25.79812 | -80.36368 | 1119 ft | 168 kts | 89° |
| 2026-04-26 21:28 | 25.79866 | -80.35109 | 923 ft | 161 kts | 91° |
| 2026-04-26 21:28 | 25.79916 | -80.33879 | 705 ft | 153 kts | 89° |
| 2026-04-26 21:29 | 25.79969 | -80.32680 | 462 ft | 152 kts | 91° |
| 2026-04-26 21:29 | 25.79997 | -80.31474 | 418 ft | 168 kts | 91° |
| 2026-04-26 21:29 | 25.80049 | -80.30129 | 1348 ft | 191 kts | 92° |
| 2026-04-26 21:29 | 25.80130 | -80.28483 | 2027 ft | 229 kts | 88° |
| 2026-04-26 21:30 | 25.80239 | -80.26766 | 2551 ft | 220 kts | 87° |
| 2026-04-26 21:30 | 25.80352 | -80.25065 | 2970 ft | 229 kts | 87° |
| 2026-04-26 21:30 | 25.80472 | -80.23267 | 3048 ft | 237 kts | 87° |
| 2026-04-26 21:30 | 25.80599 | -80.21428 | 3024 ft | 244 kts | 86° |
| 2026-04-26 21:31 | 25.80732 | -80.19531 | 3024 ft | 243 kts | 86° |
| 2026-04-26 21:31 | 25.80865 | -80.17662 | 2999 ft | 242 kts | 86° |
| 2026-04-26 21:31 | 25.80997 | -80.15832 | 2994 ft | 235 kts | 85° |
| 2026-04-26 21:31 | 25.81123 | -80.14049 | 3017 ft | 230 kts | 86° |
| 2026-04-26 21:32 | 25.81254 | -80.12275 | 3004 ft | 230 kts | 86° |
| 2026-04-26 21:32 | 25.81386 | -80.10513 | 2981 ft | 227 kts | 86° |
| 2026-04-26 21:32 | 25.81519 | -80.08771 | 3000 ft | 230 kts | 86° |
| 2026-04-26 21:32 | 25.81661 | -80.07014 | 2983 ft | 231 kts | 85° |
| 2026-04-26 21:33 | 25.81809 | -80.05264 | 2975 ft | 224 kts | 86° |
| 2026-04-26 21:33 | 25.81958 | -80.03542 | 2995 ft | 230 kts | 85° |
| 2026-04-26 21:33 | 25.82113 | -80.01729 | 3017 ft | 240 kts | 86° |
| 2026-04-26 21:33 | 25.82274 | -79.99871 | 3000 ft | 238 kts | 85° |
| 2026-04-26 21:34 | 25.82433 | -79.98083 | 2984 ft | 229 kts | 85° |
| 2026-04-26 21:34 | 25.82589 | -79.96358 | 2976 ft | 221 kts | 85° |
| 2026-04-26 21:34 | 25.82747 | -79.94628 | 2988 ft | 233 kts | 85° |
| 2026-04-26 21:34 | 25.82915 | -79.92819 | 3184 ft | 236 kts | 85° |
| 2026-04-26 21:35 | 25.83082 | -79.91056 | 3565 ft | 229 kts | 85° |
| 2026-04-26 21:35 | 25.83250 | -79.89288 | 3836 ft | 227 kts | 84° |
| 2026-04-26 21:35 | 25.83411 | -79.87588 | 4272 ft | 217 kts | 84° |
| 2026-04-26 21:35 | 25.83574 | -79.85892 | 4438 ft | 221 kts | 83° |
| 2026-04-26 21:36 | 25.83748 | -79.84099 | 4669 ft | 248 kts | 83° |
| 2026-04-26 21:36 | 25.83877 | -79.82792 | 4908 ft | 265 kts | 83° |
| 2026-04-26 21:36 | 25.84154 | -79.80017 | 4979 ft | 269 kts | 83° |
| 2026-04-26 21:36 | 25.84363 | -79.77966 | 4988 ft | 266 kts | 83° |
| 2026-04-26 21:37 | 25.84577 | -79.75904 | 4988 ft | 271 kts | 83° |
| 2026-04-26 21:37 | 25.84803 | -79.73820 | 4989 ft | 269 kts | 79° |
| 2026-04-26 21:37 | 25.85487 | -79.71905 | 4997 ft | 272 kts | 53° |
| 2026-04-26 21:37 | 25.86897 | -79.70532 | 4993 ft | 274 kts | 25° |
| 2026-04-26 21:38 | 25.88704 | -79.70022 | 4995 ft | 269 kts | 359° |
| 2026-04-26 21:38 | 25.90602 | -79.70085 | 4999 ft | 275 kts | 354° |
| 2026-04-26 21:38 | 25.92506 | -79.70261 | 4993 ft | 274 kts | 353° |
| 2026-04-26 21:38 | 25.94400 | -79.70454 | 4987 ft | 271 kts | 351° |
| 2026-04-26 21:39 | 25.96164 | -79.71042 | 4985 ft | 268 kts | 327° |
| 2026-04-26 21:39 | 25.97487 | -79.72479 | 5000 ft | 267 kts | 299° |
| 2026-04-26 21:39 | 25.98037 | -79.74417 | 4990 ft | 264 kts | 273° |
| 2026-04-26 21:39 | 25.97960 | -79.76448 | 5004 ft | 263 kts | 264° |
| 2026-04-26 21:40 | 25.97746 | -79.78475 | 4998 ft | 265 kts | 263° |
| 2026-04-26 21:40 | 25.97508 | -79.80507 | 4990 ft | 265 kts | 263° |
| 2026-04-26 21:40 | 25.97266 | -79.82527 | 4979 ft | 262 kts | 262° |
| 2026-04-26 21:40 | 25.97025 | -79.84527 | 4982 ft | 260 kts | 262° |
| 2026-04-26 21:41 | 25.96785 | -79.86510 | 4979 ft | 258 kts | 263° |
| 2026-04-26 21:41 | 25.96545 | -79.88469 | 4981 ft | 256 kts | 262° |
| 2026-04-26 21:41 | 25.96303 | -79.90442 | 4991 ft | 264 kts | 262° |
| 2026-04-26 21:41 | 25.96054 | -79.92468 | 4990 ft | 265 kts | 262° |
| 2026-04-26 21:42 | 25.95803 | -79.94518 | 4991 ft | 270 kts | 262° |
| 2026-04-26 21:42 | 25.95552 | -79.96575 | 4979 ft | 265 kts | 262° |
| 2026-04-26 21:42 | 25.95307 | -79.98587 | 4972 ft | 262 kts | 262° |
| 2026-04-26 21:42 | 25.95062 | -80.00587 | 4973 ft | 261 kts | 262° |
| 2026-04-26 21:43 | 25.94816 | -80.02595 | 4971 ft | 263 kts | 262° |
| 2026-04-26 21:43 | 25.94570 | -80.04619 | 4975 ft | 264 kts | 262° |
| 2026-04-26 21:43 | 25.94324 | -80.06652 | 4980 ft | 267 kts | 263° |
| 2026-04-26 21:43 | 25.94072 | -80.08706 | 4976 ft | 268 kts | 263° |
| 2026-04-26 21:44 | 25.93818 | -80.10764 | 4997 ft | 269 kts | 262° |
| 2026-04-26 21:44 | 25.93564 | -80.12842 | 4984 ft | 272 kts | 263° |
| 2026-04-26 21:44 | 25.93313 | -80.14879 | 4965 ft | 261 kts | 262° |
| 2026-04-26 21:44 | 25.93073 | -80.16825 | 4972 ft | 256 kts | 263° |
| 2026-04-26 21:45 | 25.92832 | -80.18776 | 4996 ft | 254 kts | 263° |
| 2026-04-26 21:45 | 25.92592 | -80.20713 | 4994 ft | 252 kts | 262° |
| 2026-04-26 21:45 | 25.92353 | -80.22647 | 4989 ft | 251 kts | 262° |
| 2026-04-26 21:45 | 25.92118 | -80.24561 | 5001 ft | 249 kts | 262° |
| 2026-04-26 21:46 | 25.91888 | -80.26462 | 4993 ft | 247 kts | 263° |
| 2026-04-26 21:46 | 25.91658 | -80.28346 | 4993 ft | 245 kts | 263° |
| 2026-04-26 21:46 | 25.91427 | -80.30216 | 4929 ft | 240 kts | 263° |
| 2026-04-26 21:46 | 25.91202 | -80.32023 | 4823 ft | 231 kts | 262° |
| 2026-04-26 21:47 | 25.90990 | -80.33774 | 4472 ft | 227 kts | 262° |
| 2026-04-26 21:47 | 25.90788 | -80.35492 | 4075 ft | 225 kts | 262° |
| 2026-04-26 21:47 | 25.90595 | -80.37212 | 3610 ft | 224 kts | 262° |
| 2026-04-26 21:47 | 25.90408 | -80.38931 | 3266 ft | 228 kts | 262° |
| 2026-04-26 21:48 | 25.90213 | -80.40722 | 3095 ft | 234 kts | 263° |
| 2026-04-26 21:48 | 25.90010 | -80.42512 | 3045 ft | 233 kts | 262° |
| 2026-04-26 21:48 | 25.89822 | -80.44310 | 3009 ft | 235 kts | 263° |
| 2026-04-26 21:48 | 25.89620 | -80.46100 | 2977 ft | 231 kts | 263° |
| 2026-04-26 21:49 | 25.89435 | -80.47840 | 2987 ft | 224 kts | 263° |
| 2026-04-26 21:49 | 25.89247 | -80.49557 | 2975 ft | 223 kts | 263° |
| 2026-04-26 21:49 | 25.88886 | -80.51147 | 2956 ft | 206 kts | 239° |
| 2026-04-26 21:49 | 25.87792 | -80.52260 | 3021 ft | 229 kts | 207° |
| 2026-04-26 21:50 | 25.86220 | -80.52584 | 2987 ft | 236 kts | 178° |
| 2026-04-26 21:50 | 25.85131 | -80.52422 | 3004 ft | 232 kts | 173° |
| 2026-04-26 21:50 | 25.83053 | -80.52042 | 2981 ft | 226 kts | 173° |
| 2026-04-26 21:50 | 25.81512 | -80.51743 | 2965 ft | 221 kts | 170° |
| 2026-04-26 21:51 | 25.80114 | -80.51020 | 2983 ft | 232 kts | 143° |
| 2026-04-26 21:51 | 25.79158 | -80.49537 | 2987 ft | 242 kts | 108° |
| 2026-04-26 21:51 | 25.79046 | -80.47750 | 3016 ft | 222 kts | 82° |
| 2026-04-26 21:51 | 25.79281 | -80.46079 | 2760 ft | 216 kts | 81° |
| 2026-04-26 21:52 | 25.79459 | -80.44493 | 2499 ft | 200 kts | 86° |
| 2026-04-26 21:52 | 25.79541 | -80.43017 | 2212 ft | 186 kts | 89° |
| 2026-04-26 21:52 | 25.79597 | -80.41651 | 1990 ft | 169 kts | 89° |
| 2026-04-26 21:52 | 25.79647 | -80.40401 | 1807 ft | 159 kts | 89° |
| 2026-04-26 21:53 | 25.79697 | -80.39169 | 1597 ft | 161 kts | 88° |
| 2026-04-26 21:53 | 25.79747 | -80.37983 | 1390 ft | 149 kts | 90° |
| 2026-04-26 21:53 | 25.79794 | -80.36815 | 1194 ft | 153 kts | 89° |
| 2026-04-26 21:53 | 25.79844 | -80.35645 | 999 ft | 151 kts | 91° |
| 2026-04-26 21:54 | 25.79890 | -80.34500 | 801 ft | 147 kts | 90° |
| 2026-04-26 21:54 | 25.79935 | -80.33377 | 636 ft | 147 kts | 89° |
| 2026-04-26 21:54 | 25.79985 | -80.32247 | 423 ft | 144 kts | 87° |
| 2026-04-26 21:54 | 25.80034 | -80.31163 | 239 ft | 138 kts | 88° |
| 2026-04-26 21:55 | 25.80070 | -80.30092 | 42 ft | 140 kts | 87° |
| 2026-04-26 21:55 | 25.80126 | -80.28973 | 579 ft | 141 kts | 85° |
| 2026-04-26 21:55 | 25.80147 | -80.27895 | 1498 ft | 122 kts | 97° |
| 2026-04-26 21:55 | 25.80086 | -80.26852 | 1897 ft | 151 kts | 97° |
| 2026-04-26 21:56 | 25.79990 | -80.25618 | 1369 ft | 174 kts | 103° |
| 2026-04-26 21:56 | 25.79525 | -80.24065 | 1220 ft | 236 kts | 120° |
| 2026-04-26 21:56 | 25.78545 | -80.22566 | 1581 ft | 247 kts | 139° |
| 2026-04-26 21:56 | 25.77087 | -80.21441 | 1731 ft | 261 kts | 158° |
| 2026-04-26 21:57 | 25.75345 | -80.20849 | 2126 ft | 264 kts | 171° |
| 2026-04-26 21:57 | 25.74139 | -80.20751 | 2505 ft | 262 kts | 186° |
| 2026-04-26 21:57 | 25.71972 | -80.21523 | 2420 ft | 249 kts | 214° |
| 2026-04-26 21:57 | 25.70810 | -80.22894 | 2717 ft | 239 kts | 244° |
| 2026-04-26 21:58 | 25.70392 | -80.24590 | 3378 ft | 218 kts | 261° |
| 2026-04-26 21:58 | 25.70180 | -80.26227 | 3816 ft | 213 kts | 261° |
| 2026-04-26 21:58 | 25.70037 | -80.27330 | 3972 ft | 215 kts | 262° |
| 2026-04-26 21:58 | 25.69825 | -80.28950 | 4291 ft | 216 kts | 262° |
| 2026-04-26 21:59 | 25.69603 | -80.30603 | 4602 ft | 213 kts | 261° |
| 2026-04-26 21:59 | 25.69382 | -80.32231 | 4881 ft | 213 kts | 262° |
| 2026-04-26 21:59 | 25.69150 | -80.33913 | 5014 ft | 227 kts | 262° |
| 2026-04-26 21:59 | 25.68913 | -80.35640 | 5013 ft | 225 kts | 262° |
| 2026-04-26 22:00 | 25.68674 | -80.37361 | 5007 ft | 224 kts | 262° |
| 2026-04-26 22:00 | 25.68443 | -80.39038 | 4998 ft | 217 kts | 262° |
| 2026-04-26 22:00 | 25.68214 | -80.40670 | 4997 ft | 212 kts | 261° |
| 2026-04-26 22:00 | 25.67992 | -80.42278 | 5000 ft | 216 kts | 262° |
| 2026-04-26 22:01 | 25.67768 | -80.43923 | 4994 ft | 215 kts | 263° |
| 2026-04-26 22:01 | 25.67702 | -80.45559 | 4948 ft | 213 kts | 271° |
| 2026-04-26 22:01 | 25.67744 | -80.47202 | 4799 ft | 212 kts | 271° |
| 2026-04-26 22:01 | 25.67801 | -80.48826 | 4491 ft | 212 kts | 272° |
| 2026-04-26 22:02 | 25.67872 | -80.50453 | 4235 ft | 208 kts | 277° |
| 2026-04-26 22:02 | 25.68296 | -80.51970 | 3898 ft | 206 kts | 291° |
| 2026-04-26 22:02 | 25.68884 | -80.53418 | 3625 ft | 205 kts | 292° |
| 2026-04-26 22:02 | 25.69486 | -80.54854 | 3446 ft | 206 kts | 292° |
| 2026-04-26 22:03 | 25.70090 | -80.56303 | 3286 ft | 209 kts | 293° |
| 2026-04-26 22:03 | 25.70698 | -80.57762 | 3118 ft | 206 kts | 297° |
| 2026-04-26 22:03 | 25.71701 | -80.58915 | 3048 ft | 217 kts | 330° |
| 2026-04-26 22:03 | 25.73195 | -80.59265 | 3005 ft | 228 kts | 3° |
| 2026-04-26 22:04 | 25.74670 | -80.58658 | 2997 ft | 233 kts | 35° |
| 2026-04-26 22:04 | 25.75776 | -80.57358 | 3004 ft | 234 kts | 50° |
| 2026-04-26 22:04 | 25.76790 | -80.55927 | 2999 ft | 235 kts | 50° |
| 2026-04-26 22:04 | 25.77773 | -80.54518 | 2991 ft | 224 kts | 50° |
| 2026-04-26 22:05 | 25.78660 | -80.53166 | 3023 ft | 209 kts | 61° |
| 2026-04-26 22:05 | 25.78933 | -80.51627 | 3022 ft | 206 kts | 94° |
| 2026-04-26 22:05 | 25.78756 | -80.50049 | 2990 ft | 203 kts | 99° |
| 2026-04-26 22:05 | 25.78543 | -80.48518 | 2985 ft | 199 kts | 99° |
| 2026-04-26 22:06 | 25.78310 | -80.46981 | 2998 ft | 203 kts | 101° |
| 2026-04-26 22:06 | 25.78179 | -80.45433 | 2997 ft | 197 kts | 91° |
| 2026-04-26 22:06 | 25.78201 | -80.43944 | 3028 ft | 190 kts | 89° |
| 2026-04-26 22:06 | 25.78212 | -80.42434 | 2682 ft | 203 kts | 91° |
| 2026-04-26 22:07 | 25.78226 | -80.40913 | 2393 ft | 192 kts | 89° |
| 2026-04-26 22:07 | 25.78279 | -80.39456 | 1882 ft | 186 kts | 89° |
| 2026-04-26 22:07 | 25.78339 | -80.38028 | 1298 ft | 184 kts | 89° |
| 2026-04-26 22:07 | 25.78402 | -80.36692 | 1014 ft | 168 kts | 91° |
| 2026-04-26 22:08 | 25.78451 | -80.35441 | 822 ft | 156 kts | 91° |
| 2026-04-26 22:08 | 25.78496 | -80.34209 | 649 ft | 162 kts | 89° |
| 2026-04-26 22:08 | 25.78552 | -80.33020 | 380 ft | 151 kts | 94° |
| 2026-04-26 22:08 | 25.78597 | -80.31848 | 150 ft | 151 kts | 91° |
| 2026-04-26 22:09 | 25.78646 | -80.30729 | 23 ft | 135 kts | 91° |
| 2026-04-26 22:09 | 25.78677 | -80.29825 | 19 ft | 96 kts | 88° |
| 2026-04-26 22:09 | 25.78706 | -80.29203 | 20 ft | 69 kts | 87° |
| 2026-04-26 22:09 | 25.78724 | -80.28765 | 20 ft | 44 kts | 88° |
| 2026-04-26 22:10 | 25.78752 | -80.28550 | 19 ft | 12 kts | 78° |
| 2026-04-26 22:10 | 25.78791 | -80.28471 | 20 ft | 12 kts | 52° |
| 2026-04-26 22:10 | 25.78837 | -80.28411 | 21 ft | 9 kts | 49° |
| 2026-04-26 22:10 | 25.78898 | -80.28329 | 20 ft | 19 kts | 52° |
| 2026-04-26 22:11 | 25.78979 | -80.28233 | 20 ft | 8 kts | 22° |
| 2026-04-26 22:11 | 25.79040 | -80.28292 | 20 ft | 16 kts | 282° |